sensor_id;sensor_type;location;lat;lon;timestamp;temperature;humidity
45807;DHT22;31507;51.494;7.518;2024-02-15T00:00:37;11.10;99.90
45807;DHT22;31507;51.494;7.518;2024-02-15T00:03:03;11.10;99.90
45807;DHT22;31507;51.494;7.518;2024-02-15T00:05:32;11.10;99.90
45807;DHT22;31507;51.494;7.518;2024-02-15T00:07:57;11.10;99.90
45807;DHT22;31507;51.494;7.518;2024-02-15T00:10:23;11.10;99.90
45807;DHT22;31507;51.494;7.518;2024-02-15T00:12:50;11.10;99.90
45807;DHT22;31507;51.494;7.518;2024-02-15T00:15:16;11.10;99.90
45807;DHT22;31507;51.494;7.518;2024-02-15T00:17:42;11.10;99.90
45807;DHT22;31507;51.494;7.518;2024-02-15T00:20:07;11.10;99.90
45807;DHT22;31507;51.494;7.518;2024-02-15T00:22:35;11.10;99.90
45807;DHT22;31507;51.494;7.518;2024-02-15T00:25:01;11.10;99.90
45807;DHT22;31507;51.494;7.518;2024-02-15T00:27:26;11.10;99.90
45807;DHT22;31507;51.494;7.518;2024-02-15T00:29:52;11.10;99.90
45807;DHT22;31507;51.494;7.518;2024-02-15T00:32:17;11.10;99.90
45807;DHT22;31507;51.494;7.518;2024-02-15T00:34:43;11.10;99.90
45807;DHT22;31507;51.494;7.518;2024-02-15T00:37:08;11.10;99.90
45807;DHT22;31507;51.494;7.518;2024-02-15T00:39:34;11.10;99.90
45807;DHT22;31507;51.494;7.518;2024-02-15T00:42:00;11.20;99.90
45807;DHT22;31507;51.494;7.518;2024-02-15T00:44:26;11.10;99.90
45807;DHT22;31507;51.494;7.518;2024-02-15T00:46:51;11.10;99.90
45807;DHT22;31507;51.494;7.518;2024-02-15T00:49:17;11.10;99.90
45807;DHT22;31507;51.494;7.518;2024-02-15T00:51:45;11.10;99.90
45807;DHT22;31507;51.494;7.518;2024-02-15T00:54:11;11.20;99.90
45807;DHT22;31507;51.494;7.518;2024-02-15T00:56:36;11.10;99.90
45807;DHT22;31507;51.494;7.518;2024-02-15T00:59:02;11.10;99.90
45807;DHT22;31507;51.494;7.518;2024-02-15T01:01:28;11.10;99.90
45807;DHT22;31507;51.494;7.518;2024-02-15T01:03:54;11.10;99.90
45807;DHT22;31507;51.494;7.518;2024-02-15T01:06:19;11.00;99.90
45807;DHT22;31507;51.494;7.518;2024-02-15T01:08:45;11.10;99.90
45807;DHT22;31507;51.494;7.518;2024-02-15T01:11:10;11.10;99.90
45807;DHT22;31507;51.494;7.518;2024-02-15T01:13:36;11.10;99.90
45807;DHT22;31507;51.494;7.518;2024-02-15T01:16:02;11.10;99.90
45807;DHT22;31507;51.494;7.518;2024-02-15T01:18:28;11.10;99.90
45807;DHT22;31507;51.494;7.518;2024-02-15T01:20:55;11.10;99.90
45807;DHT22;31507;51.494;7.518;2024-02-15T01:23:21;11.10;99.90
45807;DHT22;31507;51.494;7.518;2024-02-15T01:25:47;11.10;99.90
45807;DHT22;31507;51.494;7.518;2024-02-15T01:28:13;11.10;99.90
45807;DHT22;31507;51.494;7.518;2024-02-15T01:30:39;11.10;99.90
45807;DHT22;31507;51.494;7.518;2024-02-15T01:33:04;11.10;99.90
45807;DHT22;31507;51.494;7.518;2024-02-15T01:35:30;11.10;99.90
45807;DHT22;31507;51.494;7.518;2024-02-15T01:37:55;11.10;99.90
45807;DHT22;31507;51.494;7.518;2024-02-15T01:40:21;11.10;99.90
45807;DHT22;31507;51.494;7.518;2024-02-15T01:42:47;11.10;99.90
45807;DHT22;31507;51.494;7.518;2024-02-15T01:45:15;11.10;99.90
45807;DHT22;31507;51.494;7.518;2024-02-15T01:47:41;11.10;99.90
45807;DHT22;31507;51.494;7.518;2024-02-15T01:50:09;11.10;99.90
45807;DHT22;31507;51.494;7.518;2024-02-15T01:52:34;11.10;99.90
45807;DHT22;31507;51.494;7.518;2024-02-15T01:55:00;11.10;99.90
45807;DHT22;31507;51.494;7.518;2024-02-15T01:57:32;11.10;99.90
45807;DHT22;31507;51.494;7.518;2024-02-15T01:59:58;11.20;99.90
45807;DHT22;31507;51.494;7.518;2024-02-15T02:02:23;11.20;99.90
45807;DHT22;31507;51.494;7.518;2024-02-15T02:04:50;11.20;99.90
45807;DHT22;31507;51.494;7.518;2024-02-15T02:07:16;11.20;99.90
45807;DHT22;31507;51.494;7.518;2024-02-15T02:09:41;11.20;99.90
45807;DHT22;31507;51.494;7.518;2024-02-15T02:12:07;11.20;99.90
45807;DHT22;31507;51.494;7.518;2024-02-15T02:14:33;11.20;99.90
45807;DHT22;31507;51.494;7.518;2024-02-15T02:17:12;11.20;99.90
45807;DHT22;31507;51.494;7.518;2024-02-15T02:19:38;11.30;99.90
45807;DHT22;31507;51.494;7.518;2024-02-15T02:22:04;11.20;99.90
45807;DHT22;31507;51.494;7.518;2024-02-15T02:24:31;11.20;99.90
45807;DHT22;31507;51.494;7.518;2024-02-15T02:27:05;11.20;99.90
45807;DHT22;31507;51.494;7.518;2024-02-15T02:29:32;11.20;99.90
45807;DHT22;31507;51.494;7.518;2024-02-15T02:31:58;11.20;99.90
45807;DHT22;31507;51.494;7.518;2024-02-15T02:34:23;11.20;99.90
45807;DHT22;31507;51.494;7.518;2024-02-15T02:36:50;11.20;99.90
45807;DHT22;31507;51.494;7.518;2024-02-15T02:39:16;11.10;99.90
45807;DHT22;31507;51.494;7.518;2024-02-15T02:41:42;11.10;99.90
45807;DHT22;31507;51.494;7.518;2024-02-15T02:44:08;11.10;99.90
45807;DHT22;31507;51.494;7.518;2024-02-15T02:46:33;11.10;99.90
45807;DHT22;31507;51.494;7.518;2024-02-15T02:48:59;11.10;99.90
45807;DHT22;31507;51.494;7.518;2024-02-15T02:51:24;11.10;99.90
45807;DHT22;31507;51.494;7.518;2024-02-15T02:53:50;11.10;99.90
45807;DHT22;31507;51.494;7.518;2024-02-15T02:56:15;11.00;99.90
45807;DHT22;31507;51.494;7.518;2024-02-15T02:58:41;11.00;99.90
45807;DHT22;31507;51.494;7.518;2024-02-15T03:01:08;11.00;99.90
45807;DHT22;31507;51.494;7.518;2024-02-15T03:03:33;11.00;99.90
45807;DHT22;31507;51.494;7.518;2024-02-15T03:05:59;11.00;99.90
45807;DHT22;31507;51.494;7.518;2024-02-15T03:08:24;11.00;99.90
45807;DHT22;31507;51.494;7.518;2024-02-15T03:10:50;11.00;99.90
45807;DHT22;31507;51.494;7.518;2024-02-15T03:13:17;11.00;99.90
45807;DHT22;31507;51.494;7.518;2024-02-15T03:15:44;11.10;99.90
45807;DHT22;31507;51.494;7.518;2024-02-15T03:18:11;11.00;99.90
45807;DHT22;31507;51.494;7.518;2024-02-15T03:20:39;11.10;99.90
45807;DHT22;31507;51.494;7.518;2024-02-15T03:23:05;11.10;99.90
45807;DHT22;31507;51.494;7.518;2024-02-15T03:25:30;11.10;99.90
45807;DHT22;31507;51.494;7.518;2024-02-15T03:27:57;11.20;99.90
45807;DHT22;31507;51.494;7.518;2024-02-15T03:30:24;11.20;99.90
45807;DHT22;31507;51.494;7.518;2024-02-15T03:32:50;11.20;99.90
45807;DHT22;31507;51.494;7.518;2024-02-15T03:35:17;11.20;99.90
45807;DHT22;31507;51.494;7.518;2024-02-15T03:37:42;11.20;99.90
45807;DHT22;31507;51.494;7.518;2024-02-15T03:40:08;11.10;99.90
45807;DHT22;31507;51.494;7.518;2024-02-15T03:42:35;11.10;99.90
45807;DHT22;31507;51.494;7.518;2024-02-15T03:45:03;11.00;99.90
45807;DHT22;31507;51.494;7.518;2024-02-15T03:47:31;11.00;99.90
45807;DHT22;31507;51.494;7.518;2024-02-15T03:49:59;10.90;99.90
45807;DHT22;31507;51.494;7.518;2024-02-15T03:52:24;10.90;99.90
45807;DHT22;31507;51.494;7.518;2024-02-15T03:54:50;10.90;99.90
45807;DHT22;31507;51.494;7.518;2024-02-15T03:57:15;10.90;99.90
45807;DHT22;31507;51.494;7.518;2024-02-15T03:59:42;10.90;99.90
45807;DHT22;31507;51.494;7.518;2024-02-15T04:02:08;10.90;99.90
45807;DHT22;31507;51.494;7.518;2024-02-15T04:04:39;10.90;99.90
45807;DHT22;31507;51.494;7.518;2024-02-15T04:07:07;11.00;99.90
45807;DHT22;31507;51.494;7.518;2024-02-15T04:09:33;11.00;99.90
45807;DHT22;31507;51.494;7.518;2024-02-15T04:12:01;11.10;99.90
45807;DHT22;31507;51.494;7.518;2024-02-15T04:14:26;11.00;99.90
45807;DHT22;31507;51.494;7.518;2024-02-15T04:16:53;11.10;99.90
45807;DHT22;31507;51.494;7.518;2024-02-15T04:19:18;11.10;99.90
45807;DHT22;31507;51.494;7.518;2024-02-15T04:21:48;11.00;99.90
45807;DHT22;31507;51.494;7.518;2024-02-15T04:24:14;11.10;99.90
45807;DHT22;31507;51.494;7.518;2024-02-15T04:26:39;11.10;99.90
45807;DHT22;31507;51.494;7.518;2024-02-15T04:29:05;11.10;99.90
45807;DHT22;31507;51.494;7.518;2024-02-15T04:31:34;11.10;99.90
45807;DHT22;31507;51.494;7.518;2024-02-15T04:34:02;11.10;99.90
45807;DHT22;31507;51.494;7.518;2024-02-15T04:36:28;11.10;99.90
45807;DHT22;31507;51.494;7.518;2024-02-15T04:38:59;11.10;99.90
45807;DHT22;31507;51.494;7.518;2024-02-15T04:41:24;11.10;99.90
45807;DHT22;31507;51.494;7.518;2024-02-15T04:43:50;11.10;99.90
45807;DHT22;31507;51.494;7.518;2024-02-15T04:46:16;11.10;99.90
45807;DHT22;31507;51.494;7.518;2024-02-15T04:48:42;11.10;99.90
45807;DHT22;31507;51.494;7.518;2024-02-15T04:51:08;11.10;99.90
45807;DHT22;31507;51.494;7.518;2024-02-15T04:53:36;11.10;99.90
45807;DHT22;31507;51.494;7.518;2024-02-15T04:56:01;11.10;99.90
45807;DHT22;31507;51.494;7.518;2024-02-15T04:58:32;11.20;99.90
45807;DHT22;31507;51.494;7.518;2024-02-15T05:01:02;11.20;99.90
45807;DHT22;31507;51.494;7.518;2024-02-15T05:03:30;11.20;99.90
45807;DHT22;31507;51.494;7.518;2024-02-15T05:06:00;11.20;99.90
45807;DHT22;31507;51.494;7.518;2024-02-15T05:08:26;11.20;99.90
45807;DHT22;31507;51.494;7.518;2024-02-15T05:10:51;11.20;99.90
45807;DHT22;31507;51.494;7.518;2024-02-15T05:13:23;11.20;99.90
45807;DHT22;31507;51.494;7.518;2024-02-15T05:15:49;11.20;99.90
45807;DHT22;31507;51.494;7.518;2024-02-15T05:18:15;11.20;99.90
45807;DHT22;31507;51.494;7.518;2024-02-15T05:20:42;11.20;99.90
45807;DHT22;31507;51.494;7.518;2024-02-15T05:23:08;11.20;99.90
45807;DHT22;31507;51.494;7.518;2024-02-15T05:25:33;11.10;99.90
45807;DHT22;31507;51.494;7.518;2024-02-15T05:28:00;11.20;99.90
45807;DHT22;31507;51.494;7.518;2024-02-15T05:30:26;11.10;99.90
45807;DHT22;31507;51.494;7.518;2024-02-15T05:32:52;11.20;99.90
45807;DHT22;31507;51.494;7.518;2024-02-15T05:35:18;11.20;99.90
45807;DHT22;31507;51.494;7.518;2024-02-15T05:37:44;11.20;99.90
45807;DHT22;31507;51.494;7.518;2024-02-15T05:40:09;11.20;99.90
45807;DHT22;31507;51.494;7.518;2024-02-15T05:42:43;11.20;99.90
45807;DHT22;31507;51.494;7.518;2024-02-15T05:48:03;11.30;99.90
45807;DHT22;31507;51.494;7.518;2024-02-15T05:50:31;11.30;99.90
45807;DHT22;31507;51.494;7.518;2024-02-15T05:52:57;11.30;99.90
45807;DHT22;31507;51.494;7.518;2024-02-15T05:55:23;11.30;99.90
45807;DHT22;31507;51.494;7.518;2024-02-15T05:57:51;11.30;99.90
45807;DHT22;31507;51.494;7.518;2024-02-15T06:00:17;11.30;99.90
45807;DHT22;31507;51.494;7.518;2024-02-15T06:02:44;11.20;99.90
45807;DHT22;31507;51.494;7.518;2024-02-15T06:05:09;11.20;99.90
45807;DHT22;31507;51.494;7.518;2024-02-15T06:07:35;11.20;99.90
45807;DHT22;31507;51.494;7.518;2024-02-15T06:10:01;11.20;99.90
45807;DHT22;31507;51.494;7.518;2024-02-15T06:12:28;11.20;99.90
45807;DHT22;31507;51.494;7.518;2024-02-15T06:14:54;11.20;99.90
45807;DHT22;31507;51.494;7.518;2024-02-15T06:17:20;11.20;99.90
45807;DHT22;31507;51.494;7.518;2024-02-15T06:19:47;11.20;99.90
45807;DHT22;31507;51.494;7.518;2024-02-15T06:22:12;11.20;99.90
45807;DHT22;31507;51.494;7.518;2024-02-15T06:24:38;11.20;99.90
45807;DHT22;31507;51.494;7.518;2024-02-15T06:27:04;11.20;99.90
45807;DHT22;31507;51.494;7.518;2024-02-15T06:29:31;11.20;99.90
45807;DHT22;31507;51.494;7.518;2024-02-15T06:32:14;11.10;99.90
45807;DHT22;31507;51.494;7.518;2024-02-15T06:34:59;11.20;99.90
45807;DHT22;31507;51.494;7.518;2024-02-15T06:37:43;11.20;99.90
45807;DHT22;31507;51.494;7.518;2024-02-15T06:40:28;11.20;99.90
45807;DHT22;31507;51.494;7.518;2024-02-15T06:42:54;11.20;99.90
45807;DHT22;31507;51.494;7.518;2024-02-15T06:45:19;11.20;99.90
45807;DHT22;31507;51.494;7.518;2024-02-15T06:47:45;11.20;99.90
45807;DHT22;31507;51.494;7.518;2024-02-15T06:50:11;11.20;99.90
45807;DHT22;31507;51.494;7.518;2024-02-15T06:52:37;11.20;99.90
45807;DHT22;31507;51.494;7.518;2024-02-15T06:55:04;11.20;99.90
45807;DHT22;31507;51.494;7.518;2024-02-15T06:57:29;11.10;99.90
45807;DHT22;31507;51.494;7.518;2024-02-15T06:59:55;11.20;99.90
45807;DHT22;31507;51.494;7.518;2024-02-15T07:02:22;11.20;99.90
45807;DHT22;31507;51.494;7.518;2024-02-15T07:04:48;11.20;99.90
45807;DHT22;31507;51.494;7.518;2024-02-15T07:07:14;11.20;99.90
45807;DHT22;31507;51.494;7.518;2024-02-15T07:09:40;11.20;99.90
45807;DHT22;31507;51.494;7.518;2024-02-15T07:12:05;11.20;99.90
45807;DHT22;31507;51.494;7.518;2024-02-15T07:14:31;11.10;99.90
45807;DHT22;31507;51.494;7.518;2024-02-15T07:16:56;11.10;99.90
45807;DHT22;31507;51.494;7.518;2024-02-15T07:19:23;11.10;99.90
45807;DHT22;31507;51.494;7.518;2024-02-15T07:21:49;11.10;99.90
45807;DHT22;31507;51.494;7.518;2024-02-15T07:24:16;11.10;99.90
45807;DHT22;31507;51.494;7.518;2024-02-15T07:26:41;11.10;99.90
45807;DHT22;31507;51.494;7.518;2024-02-15T07:29:07;11.10;99.90
45807;DHT22;31507;51.494;7.518;2024-02-15T07:31:33;11.10;99.90
45807;DHT22;31507;51.494;7.518;2024-02-15T07:33:59;11.10;99.90
45807;DHT22;31507;51.494;7.518;2024-02-15T07:36:24;11.10;99.90
45807;DHT22;31507;51.494;7.518;2024-02-15T07:38:51;11.10;99.90
45807;DHT22;31507;51.494;7.518;2024-02-15T07:41:18;11.00;99.90
45807;DHT22;31507;51.494;7.518;2024-02-15T07:43:45;11.10;99.90
45807;DHT22;31507;51.494;7.518;2024-02-15T07:46:12;11.10;99.90
45807;DHT22;31507;51.494;7.518;2024-02-15T07:48:39;11.00;99.90
45807;DHT22;31507;51.494;7.518;2024-02-15T07:51:09;11.10;99.90
45807;DHT22;31507;51.494;7.518;2024-02-15T07:53:35;11.00;99.90
45807;DHT22;31507;51.494;7.518;2024-02-15T07:56:00;11.00;99.90
45807;DHT22;31507;51.494;7.518;2024-02-15T07:58:26;11.00;99.90
45807;DHT22;31507;51.494;7.518;2024-02-15T08:00:51;11.00;99.90
45807;DHT22;31507;51.494;7.518;2024-02-15T08:03:17;11.00;99.90
45807;DHT22;31507;51.494;7.518;2024-02-15T08:05:42;11.00;99.90
45807;DHT22;31507;51.494;7.518;2024-02-15T08:08:08;11.10;99.90
45807;DHT22;31507;51.494;7.518;2024-02-15T08:10:33;11.10;99.90
45807;DHT22;31507;51.494;7.518;2024-02-15T08:12:59;11.10;99.90
45807;DHT22;31507;51.494;7.518;2024-02-15T08:15:24;11.10;99.90
45807;DHT22;31507;51.494;7.518;2024-02-15T08:17:52;11.10;99.90
45807;DHT22;31507;51.494;7.518;2024-02-15T08:20:20;11.10;99.90
45807;DHT22;31507;51.494;7.518;2024-02-15T08:22:46;11.10;99.90
45807;DHT22;31507;51.494;7.518;2024-02-15T08:25:12;11.10;99.90
45807;DHT22;31507;51.494;7.518;2024-02-15T08:27:41;11.10;99.90
45807;DHT22;31507;51.494;7.518;2024-02-15T08:30:12;11.10;99.90
45807;DHT22;31507;51.494;7.518;2024-02-15T08:32:38;11.10;99.90
45807;DHT22;31507;51.494;7.518;2024-02-15T08:35:08;11.20;99.90
45807;DHT22;31507;51.494;7.518;2024-02-15T08:37:37;11.30;99.90
45807;DHT22;31507;51.494;7.518;2024-02-15T08:40:07;11.30;99.90
45807;DHT22;31507;51.494;7.518;2024-02-15T08:42:39;11.40;99.90
45807;DHT22;31507;51.494;7.518;2024-02-15T08:45:05;11.50;99.90
45807;DHT22;31507;51.494;7.518;2024-02-15T08:50:06;11.60;99.90
45807;DHT22;31507;51.494;7.518;2024-02-15T08:52:33;11.70;99.90
45807;DHT22;31507;51.494;7.518;2024-02-15T08:54:59;11.70;99.90
45807;DHT22;31507;51.494;7.518;2024-02-15T08:57:26;11.70;99.90
45807;DHT22;31507;51.494;7.518;2024-02-15T08:59:52;11.70;99.90
45807;DHT22;31507;51.494;7.518;2024-02-15T09:02:17;11.70;99.90
45807;DHT22;31507;51.494;7.518;2024-02-15T09:04:43;11.80;99.90
45807;DHT22;31507;51.494;7.518;2024-02-15T09:07:11;11.80;99.90
45807;DHT22;31507;51.494;7.518;2024-02-15T09:09:37;11.70;99.90
45807;DHT22;31507;51.494;7.518;2024-02-15T09:12:03;11.70;99.90
45807;DHT22;31507;51.494;7.518;2024-02-15T09:14:32;11.70;99.90
45807;DHT22;31507;51.494;7.518;2024-02-15T09:16:58;11.80;99.90
45807;DHT22;31507;51.494;7.518;2024-02-15T09:19:24;11.80;99.90
45807;DHT22;31507;51.494;7.518;2024-02-15T09:21:50;11.80;99.90
45807;DHT22;31507;51.494;7.518;2024-02-15T09:24:15;11.80;99.90
45807;DHT22;31507;51.494;7.518;2024-02-15T09:26:41;11.80;99.90
45807;DHT22;31507;51.494;7.518;2024-02-15T09:29:07;11.80;99.90
45807;DHT22;31507;51.494;7.518;2024-02-15T09:31:33;11.80;99.90
45807;DHT22;31507;51.494;7.518;2024-02-15T09:34:01;11.80;99.90
45807;DHT22;31507;51.494;7.518;2024-02-15T09:36:26;11.80;99.90
45807;DHT22;31507;51.494;7.518;2024-02-15T09:38:53;11.80;99.90
45807;DHT22;31507;51.494;7.518;2024-02-15T09:41:19;11.80;99.90
45807;DHT22;31507;51.494;7.518;2024-02-15T09:43:45;11.80;99.90
45807;DHT22;31507;51.494;7.518;2024-02-15T09:46:10;11.80;99.90
45807;DHT22;31507;51.494;7.518;2024-02-15T09:48:37;11.90;99.90
45807;DHT22;31507;51.494;7.518;2024-02-15T09:51:05;11.90;99.90
45807;DHT22;31507;51.494;7.518;2024-02-15T09:53:32;12.00;99.90
45807;DHT22;31507;51.494;7.518;2024-02-15T09:55:58;12.10;99.90
45807;DHT22;31507;51.494;7.518;2024-02-15T09:58:31;12.10;99.90
45807;DHT22;31507;51.494;7.518;2024-02-15T10:01:03;12.10;99.90
45807;DHT22;31507;51.494;7.518;2024-02-15T10:03:36;12.20;99.90
45807;DHT22;31507;51.494;7.518;2024-02-15T10:06:02;12.20;99.90
45807;DHT22;31507;51.494;7.518;2024-02-15T10:08:31;12.30;99.90
45807;DHT22;31507;51.494;7.518;2024-02-15T10:11:09;12.40;99.90
45807;DHT22;31507;51.494;7.518;2024-02-15T10:13:35;12.40;99.90
45807;DHT22;31507;51.494;7.518;2024-02-15T10:16:19;12.50;99.90
45807;DHT22;31507;51.494;7.518;2024-02-15T10:18:45;12.60;99.90
45807;DHT22;31507;51.494;7.518;2024-02-15T10:21:10;12.60;99.90
45807;DHT22;31507;51.494;7.518;2024-02-15T10:23:57;12.70;99.90
45807;DHT22;31507;51.494;7.518;2024-02-15T10:26:30;12.80;99.90
45807;DHT22;31507;51.494;7.518;2024-02-15T10:29:04;12.80;99.90
45807;DHT22;31507;51.494;7.518;2024-02-15T10:31:30;12.90;99.90
45807;DHT22;31507;51.494;7.518;2024-02-15T10:34:01;12.90;99.90
45807;DHT22;31507;51.494;7.518;2024-02-15T10:36:29;12.90;99.90
45807;DHT22;31507;51.494;7.518;2024-02-15T10:39:07;12.90;99.90
45807;DHT22;31507;51.494;7.518;2024-02-15T10:41:36;12.90;99.90
45807;DHT22;31507;51.494;7.518;2024-02-15T10:44:02;12.80;99.90
45807;DHT22;31507;51.494;7.518;2024-02-15T10:46:28;12.80;99.90
45807;DHT22;31507;51.494;7.518;2024-02-15T10:48:54;12.70;99.90
45807;DHT22;31507;51.494;7.518;2024-02-15T10:51:19;12.80;99.90
45807;DHT22;31507;51.494;7.518;2024-02-15T10:53:47;12.80;99.90
45807;DHT22;31507;51.494;7.518;2024-02-15T10:56:17;12.90;99.90
45807;DHT22;31507;51.494;7.518;2024-02-15T10:58:51;12.90;99.90
45807;DHT22;31507;51.494;7.518;2024-02-15T11:01:21;13.00;99.90
45807;DHT22;31507;51.494;7.518;2024-02-15T11:03:51;13.10;99.90
45807;DHT22;31507;51.494;7.518;2024-02-15T11:06:21;13.10;99.90
45807;DHT22;31507;51.494;7.518;2024-02-15T11:08:48;13.20;99.90
45807;DHT22;31507;51.494;7.518;2024-02-15T11:11:14;13.30;99.90
45807;DHT22;31507;51.494;7.518;2024-02-15T11:13:40;13.40;99.90
45807;DHT22;31507;51.494;7.518;2024-02-15T11:16:07;13.50;99.90
45807;DHT22;31507;51.494;7.518;2024-02-15T11:18:46;13.50;99.90
45807;DHT22;31507;51.494;7.518;2024-02-15T11:21:16;13.50;99.90
45807;DHT22;31507;51.494;7.518;2024-02-15T11:23:42;13.50;99.90
45807;DHT22;31507;51.494;7.518;2024-02-15T11:26:42;13.50;99.90
45807;DHT22;31507;51.494;7.518;2024-02-15T11:29:05;13.50;99.90
45807;DHT22;31507;51.494;7.518;2024-02-15T11:34:41;13.40;99.90
45807;DHT22;31507;51.494;7.518;2024-02-15T11:37:08;13.40;99.90
45807;DHT22;31507;51.494;7.518;2024-02-15T11:39:43;13.40;99.90
45807;DHT22;31507;51.494;7.518;2024-02-15T11:42:24;13.40;99.90
45807;DHT22;31507;51.494;7.518;2024-02-15T11:45:01;13.40;99.90
45807;DHT22;31507;51.494;7.518;2024-02-15T11:47:31;13.40;99.90
45807;DHT22;31507;51.494;7.518;2024-02-15T11:49:59;13.40;99.90
45807;DHT22;31507;51.494;7.518;2024-02-15T11:52:25;13.50;99.90
45807;DHT22;31507;51.494;7.518;2024-02-15T11:54:50;13.50;99.90
45807;DHT22;31507;51.494;7.518;2024-02-15T11:57:18;13.50;99.90
45807;DHT22;31507;51.494;7.518;2024-02-15T12:00:01;13.50;99.90
45807;DHT22;31507;51.494;7.518;2024-02-15T12:03:00;13.50;99.90
45807;DHT22;31507;51.494;7.518;2024-02-15T12:05:44;13.50;99.90
45807;DHT22;31507;51.494;7.518;2024-02-15T12:08:28;13.50;99.90
45807;DHT22;31507;51.494;7.518;2024-02-15T12:11:13;13.50;99.90
45807;DHT22;31507;51.494;7.518;2024-02-15T12:13:58;13.60;99.90
45807;DHT22;31507;51.494;7.518;2024-02-15T12:16:42;13.70;99.90
45807;DHT22;31507;51.494;7.518;2024-02-15T12:19:26;13.70;99.90
45807;DHT22;31507;51.494;7.518;2024-02-15T12:21:52;13.70;99.90
45807;DHT22;31507;51.494;7.518;2024-02-15T12:24:18;13.80;99.90
45807;DHT22;31507;51.494;7.518;2024-02-15T12:26:47;13.80;99.90
45807;DHT22;31507;51.494;7.518;2024-02-15T12:29:17;13.80;99.90
45807;DHT22;31507;51.494;7.518;2024-02-15T12:31:42;13.80;99.90
45807;DHT22;31507;51.494;7.518;2024-02-15T12:34:09;13.90;99.90
45807;DHT22;31507;51.494;7.518;2024-02-15T12:36:36;13.90;99.90
45807;DHT22;31507;51.494;7.518;2024-02-15T12:39:04;14.00;99.90
45807;DHT22;31507;51.494;7.518;2024-02-15T12:41:39;14.10;99.90
45807;DHT22;31507;51.494;7.518;2024-02-15T12:44:08;14.20;99.90
45807;DHT22;31507;51.494;7.518;2024-02-15T12:46:35;14.30;99.90
45807;DHT22;31507;51.494;7.518;2024-02-15T12:54:44;14.40;99.90
45807;DHT22;31507;51.494;7.518;2024-02-15T12:57:10;14.60;99.90
45807;DHT22;31507;51.494;7.518;2024-02-15T12:59:40;14.70;99.90
45807;DHT22;31507;51.494;7.518;2024-02-15T13:02:07;14.90;99.90
45807;DHT22;31507;51.494;7.518;2024-02-15T13:04:33;15.10;99.90
45807;DHT22;31507;51.494;7.518;2024-02-15T13:06:58;15.40;99.90
45807;DHT22;31507;51.494;7.518;2024-02-15T13:09:26;15.60;99.90
45807;DHT22;31507;51.494;7.518;2024-02-15T13:11:52;15.70;99.90
45807;DHT22;31507;51.494;7.518;2024-02-15T13:14:18;15.70;99.90
45807;DHT22;31507;51.494;7.518;2024-02-15T13:16:47;15.70;99.90
45807;DHT22;31507;51.494;7.518;2024-02-15T13:19:16;15.70;99.90
45807;DHT22;31507;51.494;7.518;2024-02-15T13:21:50;15.70;99.90
45807;DHT22;31507;51.494;7.518;2024-02-15T13:24:18;15.60;97.20
45807;DHT22;31507;51.494;7.518;2024-02-15T13:26:44;15.60;99.90
45807;DHT22;31507;51.494;7.518;2024-02-15T13:29:10;15.70;99.90
45807;DHT22;31507;51.494;7.518;2024-02-15T13:31:37;15.70;99.90
45807;DHT22;31507;51.494;7.518;2024-02-15T13:34:02;15.80;99.90
45807;DHT22;31507;51.494;7.518;2024-02-15T13:36:28;15.80;95.30
45807;DHT22;31507;51.494;7.518;2024-02-15T13:38:54;15.90;99.90
45807;DHT22;31507;51.494;7.518;2024-02-15T13:41:19;16.00;99.90
45807;DHT22;31507;51.494;7.518;2024-02-15T13:43:45;16.00;99.90
45807;DHT22;31507;51.494;7.518;2024-02-15T13:46:10;15.90;94.00
45807;DHT22;31507;51.494;7.518;2024-02-15T13:48:36;15.80;94.50
45807;DHT22;31507;51.494;7.518;2024-02-15T13:51:01;15.70;92.20
45807;DHT22;31507;51.494;7.518;2024-02-15T13:53:27;15.60;98.30
45807;DHT22;31507;51.494;7.518;2024-02-15T13:55:53;15.50;99.90
45807;DHT22;31507;51.494;7.518;2024-02-15T13:58:19;15.50;94.60
45807;DHT22;31507;51.494;7.518;2024-02-15T14:00:47;15.40;98.80
45807;DHT22;31507;51.494;7.518;2024-02-15T14:03:13;15.40;99.90
45807;DHT22;31507;51.494;7.518;2024-02-15T14:05:40;15.40;99.90
45807;DHT22;31507;51.494;7.518;2024-02-15T14:08:07;15.40;95.70
45807;DHT22;31507;51.494;7.518;2024-02-15T14:10:36;15.40;99.90
45807;DHT22;31507;51.494;7.518;2024-02-15T14:13:02;15.30;96.70
45807;DHT22;31507;51.494;7.518;2024-02-15T14:15:31;15.30;94.50
45807;DHT22;31507;51.494;7.518;2024-02-15T14:17:59;15.30;97.10
45807;DHT22;31507;51.494;7.518;2024-02-15T14:20:26;15.40;99.90
45807;DHT22;31507;51.494;7.518;2024-02-15T14:22:52;15.30;94.90
45807;DHT22;31507;51.494;7.518;2024-02-15T14:25:24;15.30;99.90
45807;DHT22;31507;51.494;7.518;2024-02-15T14:27:51;15.30;99.90
45807;DHT22;31507;51.494;7.518;2024-02-15T14:30:18;15.30;98.40
45807;DHT22;31507;51.494;7.518;2024-02-15T14:33:02;15.20;90.90
45807;DHT22;31507;51.494;7.518;2024-02-15T14:35:36;15.20;98.60
45807;DHT22;31507;51.494;7.518;2024-02-15T14:38:04;15.10;99.90
45807;DHT22;31507;51.494;7.518;2024-02-15T14:40:49;15.10;98.50
45807;DHT22;31507;51.494;7.518;2024-02-15T14:43:25;15.00;99.90
45807;DHT22;31507;51.494;7.518;2024-02-15T14:45:53;15.00;99.90
45807;DHT22;31507;51.494;7.518;2024-02-15T14:48:21;14.90;99.90
45807;DHT22;31507;51.494;7.518;2024-02-15T14:50:46;14.80;99.60
45807;DHT22;31507;51.494;7.518;2024-02-15T14:53:12;14.80;99.90
45807;DHT22;31507;51.494;7.518;2024-02-15T14:55:41;14.70;99.90
45807;DHT22;31507;51.494;7.518;2024-02-15T14:58:11;14.70;99.90
45807;DHT22;31507;51.494;7.518;2024-02-15T15:00:39;14.60;99.70
45807;DHT22;31507;51.494;7.518;2024-02-15T15:03:04;14.60;99.90
45807;DHT22;31507;51.494;7.518;2024-02-15T15:05:30;14.60;99.90
45807;DHT22;31507;51.494;7.518;2024-02-15T15:08:15;14.60;99.90
45807;DHT22;31507;51.494;7.518;2024-02-15T15:10:59;14.50;99.90
45807;DHT22;31507;51.494;7.518;2024-02-15T15:13:43;14.50;99.90
45807;DHT22;31507;51.494;7.518;2024-02-15T15:16:08;14.50;99.90
45807;DHT22;31507;51.494;7.518;2024-02-15T15:18:39;14.50;99.90
45807;DHT22;31507;51.494;7.518;2024-02-15T15:21:05;14.50;99.90
45807;DHT22;31507;51.494;7.518;2024-02-15T15:23:31;14.40;99.90
45807;DHT22;31507;51.494;7.518;2024-02-15T15:25:57;14.40;99.90
45807;DHT22;31507;51.494;7.518;2024-02-15T15:28:22;14.40;99.90
45807;DHT22;31507;51.494;7.518;2024-02-15T15:30:48;14.40;99.90
45807;DHT22;31507;51.494;7.518;2024-02-15T15:33:16;14.40;99.90
45807;DHT22;31507;51.494;7.518;2024-02-15T15:35:45;14.40;99.90
45807;DHT22;31507;51.494;7.518;2024-02-15T15:38:11;14.40;99.90
45807;DHT22;31507;51.494;7.518;2024-02-15T15:40:37;14.30;99.90
45807;DHT22;31507;51.494;7.518;2024-02-15T15:43:11;14.30;99.90
45807;DHT22;31507;51.494;7.518;2024-02-15T15:45:39;14.30;99.90
45807;DHT22;31507;51.494;7.518;2024-02-15T15:48:05;14.30;99.90